createdAt,value
2018-01-23T00:00:31.910Z,14.63
2018-01-23T00:03:06.608Z,9.00
2018-01-23T00:05:41.600Z,13.90
2018-01-23T00:08:16.562Z,12.60
2018-01-23T00:10:51.578Z,13.70
2018-01-23T00:13:26.623Z,15.20
2018-01-23T00:16:02.471Z,15.20
2018-01-23T00:18:37.078Z,14.60
2018-01-23T00:21:12.275Z,8.55
2018-01-23T00:23:47.107Z,14.40
2018-01-23T00:26:22.023Z,13.67
2018-01-23T00:28:57.077Z,10.97
2018-01-23T00:31:32.283Z,12.60
2018-01-23T00:34:07.412Z,12.60
2018-01-23T00:36:41.919Z,14.07
2018-01-23T00:39:17.015Z,10.80
2018-01-23T00:41:51.663Z,11.63
2018-01-23T00:44:26.348Z,12.80
2018-01-23T00:47:02.409Z,11.50
2018-01-23T00:49:37.024Z,13.40
2018-01-23T00:52:12.287Z,11.80
2018-01-23T00:54:47.183Z,14.47
2018-01-23T00:57:22.448Z,12.60
2018-01-23T00:59:57.792Z,12.20
2018-01-23T01:02:33.155Z,12.00
2018-01-23T01:05:07.771Z,12.10
2018-01-23T01:07:42.974Z,12.65
2018-01-23T01:10:18.421Z,10.02
2018-01-23T01:12:53.524Z,12.37
2018-01-23T01:15:28.375Z,11.80
2018-01-23T01:18:03.555Z,11.10
2018-01-23T01:20:38.303Z,10.37
2018-01-23T01:23:13.541Z,12.00
2018-01-23T01:25:48.447Z,9.70
2018-01-23T01:28:23.388Z,10.20
2018-01-23T01:30:58.109Z,10.55
2018-01-23T01:33:33.391Z,11.10
2018-01-23T01:36:08.471Z,9.70
2018-01-23T01:38:43.532Z,10.17
2018-01-23T01:41:18.530Z,13.17
2018-01-23T01:43:53.408Z,12.20
2018-01-23T01:46:28.408Z,9.37
2018-01-23T01:49:03.890Z,11.40
2018-01-23T01:51:38.374Z,10.70
2018-01-23T01:54:13.718Z,13.57
2018-01-23T01:56:48.387Z,11.00
2018-01-23T01:59:23.220Z,11.13
2018-01-23T02:01:58.457Z,12.23
2018-01-23T02:04:33.465Z,13.90
2018-01-23T02:07:08.529Z,14.80
2018-01-23T02:09:43.137Z,12.67
2018-01-23T02:12:18.512Z,13.90
2018-01-23T02:14:53.469Z,12.67
2018-01-23T02:17:28.351Z,13.10
2018-01-23T02:20:03.435Z,12.80
2018-01-23T02:22:38.026Z,13.67
2018-01-23T02:25:12.572Z,12.70
2018-01-23T02:27:47.809Z,11.97
2018-01-23T02:30:22.295Z,13.40
2018-01-23T02:32:56.611Z,13.63
2018-01-23T02:35:31.616Z,12.80
2018-01-23T02:38:06.726Z,11.48
2018-01-23T02:40:41.687Z,12.20
2018-01-23T02:43:16.682Z,12.27
2018-01-23T02:45:51.734Z,12.03
2018-01-23T02:48:26.619Z,8.70
2018-01-23T02:51:02.790Z,11.27
2018-01-23T02:53:37.666Z,11.67
2018-01-23T02:56:12.174Z,10.73
2018-01-23T02:58:46.615Z,12.70
2018-01-23T03:01:21.519Z,11.40
2018-01-23T03:03:56.619Z,11.17
2018-01-23T03:06:31.598Z,8.63
2018-01-23T03:09:06.135Z,11.43
2018-01-23T03:11:41.352Z,11.15
2018-01-23T03:14:16.433Z,12.52
2018-01-23T03:16:51.298Z,11.50
2018-01-23T03:19:26.330Z,10.50
2018-01-23T03:22:00.788Z,14.40
2018-01-23T03:24:35.672Z,9.20
2018-01-23T03:27:10.877Z,10.03
2018-01-23T03:29:45.542Z,11.87
2018-01-23T03:32:20.494Z,9.65
2018-01-23T03:34:55.510Z,8.67
2018-01-23T03:37:30.517Z,12.27
2018-01-23T03:40:05.769Z,11.33
2018-01-23T03:42:40.658Z,11.23
2018-01-23T03:45:15.842Z,10.80
2018-01-23T03:47:50.921Z,10.93
2018-01-23T03:50:25.695Z,9.83
2018-01-23T03:53:00.322Z,11.73
2018-01-23T03:55:35.550Z,11.20
2018-01-23T03:58:10.782Z,12.23
2018-01-23T04:00:45.534Z,5.97
2018-01-23T04:03:20.602Z,11.33
2018-01-23T04:05:55.695Z,10.70
2018-01-23T04:08:30.747Z,12.37
2018-01-23T04:11:05.976Z,12.23
2018-01-23T04:13:40.803Z,10.87
2018-01-23T04:16:15.592Z,12.88
2018-01-23T04:18:52.462Z,10.97
2018-01-23T04:21:27.562Z,13.27
2018-01-23T04:24:03.062Z,14.20
2018-01-23T04:26:38.590Z,13.20
2018-01-23T04:29:13.987Z,17.90
2018-01-23T04:31:48.394Z,13.23
2018-01-23T04:34:23.578Z,16.47
2018-01-23T04:36:58.718Z,17.47
2018-01-23T04:39:33.063Z,32.97
2018-01-23T04:42:07.882Z,27.40
2018-01-23T04:44:42.879Z,20.23
2018-01-23T04:47:18.245Z,24.73
2018-01-23T04:49:52.982Z,17.00
2018-01-23T04:52:27.756Z,15.97
2018-01-23T04:55:03.039Z,15.23
2018-01-23T04:57:37.759Z,14.17
2018-01-23T05:00:12.766Z,14.20
2018-01-23T05:02:47.878Z,14.50
2018-01-23T05:05:23.164Z,15.60
2018-01-23T05:07:57.707Z,16.63
2018-01-23T05:10:32.566Z,16.17
2018-01-23T05:13:07.719Z,16.25
2018-01-23T05:15:42.742Z,16.67
2018-01-23T05:18:18.029Z,16.62
2018-01-23T05:20:52.762Z,14.95
2018-01-23T05:23:27.866Z,15.53
2018-01-23T05:26:03.136Z,11.87
2018-01-23T05:28:37.918Z,15.03
2018-01-23T05:31:12.875Z,14.50
2018-01-23T05:33:47.914Z,15.33
2018-01-23T05:36:22.767Z,17.03
2018-01-23T05:38:57.813Z,17.80
2018-01-23T05:41:32.797Z,16.20
2018-01-23T05:44:07.875Z,15.03
2018-01-23T05:46:42.960Z,16.67
2018-01-23T05:49:17.943Z,14.43
2018-01-23T05:51:52.946Z,15.50
2018-01-23T05:54:27.890Z,17.20
2018-01-23T05:57:03.202Z,12.98
2018-01-23T05:59:37.842Z,16.37
2018-01-23T06:02:12.920Z,15.30
2018-01-23T06:04:47.358Z,15.70
2018-01-23T06:07:22.859Z,16.67
2018-01-23T06:09:58.034Z,16.17
2018-01-23T06:12:32.876Z,15.83
2018-01-23T06:15:08.221Z,19.73
2018-01-23T06:17:43.285Z,17.80
2018-01-23T06:20:18.453Z,17.43
2018-01-23T06:22:53.323Z,18.67
2018-01-23T06:25:28.437Z,17.03
2018-01-23T06:28:03.429Z,20.23
2018-01-23T06:30:38.328Z,17.53
2018-01-23T06:33:13.176Z,17.53
2018-01-23T06:35:48.493Z,19.17
2018-01-23T06:38:23.389Z,19.87
2018-01-23T06:41:01.675Z,17.90
2018-01-23T06:43:36.942Z,19.23
2018-01-23T06:46:12.014Z,17.65
2018-01-23T06:48:47.002Z,15.97
2018-01-23T06:51:22.004Z,19.07
2018-01-23T06:53:57.227Z,19.47
2018-01-23T06:56:32.158Z,17.43
2018-01-23T06:59:06.768Z,16.87
2018-01-23T07:01:42.096Z,17.40
2018-01-23T07:04:17.352Z,18.10
2018-01-23T07:06:51.892Z,17.33
2018-01-23T07:09:26.563Z,18.13
2018-01-23T07:12:01.443Z,18.30
2018-01-23T07:14:36.513Z,16.90
2018-01-23T07:17:11.575Z,18.40
2018-01-23T07:19:46.457Z,17.10
2018-01-23T07:22:21.357Z,19.67
2018-01-23T07:24:56.351Z,20.13
2018-01-23T07:27:31.006Z,24.00
2018-01-23T07:30:06.130Z,20.90
2018-01-23T07:32:41.050Z,20.80
2018-01-23T07:35:16.342Z,21.67
2018-01-23T07:37:51.323Z,20.97
2018-01-23T07:40:26.514Z,19.60
2018-01-23T07:43:03.616Z,21.05
2018-01-23T07:45:38.202Z,21.00
2018-01-23T07:48:13.151Z,19.20
2018-01-23T07:50:48.213Z,18.80
2018-01-23T07:53:23.446Z,21.47
2018-01-23T07:55:58.289Z,15.80
2018-01-23T07:58:33.282Z,22.10
2018-01-23T08:01:08.356Z,23.63
2018-01-23T08:03:43.222Z,22.50
2018-01-23T08:06:18.226Z,15.33
2018-01-23T08:08:53.241Z,19.77
2018-01-23T08:11:28.280Z,22.53
2018-01-23T08:14:03.559Z,20.93
2018-01-23T08:16:38.277Z,22.60
2018-01-23T08:19:13.267Z,20.87
2018-01-23T08:21:48.208Z,20.70
2018-01-23T08:24:23.259Z,18.50
2018-01-23T08:26:57.894Z,22.37
2018-01-23T08:29:33.187Z,19.87
2018-01-23T08:32:08.377Z,19.73
2018-01-23T08:34:42.867Z,19.80
2018-01-23T08:37:17.617Z,20.90
2018-01-23T08:39:52.784Z,19.33
2018-01-23T08:42:27.775Z,18.40
2018-01-23T08:45:03.700Z,18.52
2018-01-23T08:47:38.731Z,20.53
2018-01-23T08:50:13.701Z,20.92
2018-01-23T08:52:48.662Z,18.80
2018-01-23T08:55:23.331Z,19.87
2018-01-23T08:57:58.386Z,18.17
2018-01-23T09:00:33.152Z,19.75
2018-01-23T09:03:08.291Z,19.95
2018-01-23T09:05:43.298Z,21.13
2018-01-23T09:08:18.493Z,22.90
2018-01-23T09:10:53.270Z,24.05
2018-01-23T09:13:28.224Z,21.20
2018-01-23T09:16:03.751Z,23.60
2018-01-23T09:18:39.301Z,24.60
2018-01-23T09:21:13.888Z,25.67
2018-01-23T09:23:49.299Z,17.58
2018-01-23T09:26:24.304Z,19.92
2018-01-23T09:28:59.647Z,19.03
2018-01-23T09:31:34.610Z,21.63
2018-01-23T09:34:09.827Z,22.47
2018-01-23T09:36:44.819Z,24.00
2018-01-23T09:39:19.826Z,21.10
2018-01-23T09:41:54.942Z,25.80
2018-01-23T09:44:30.278Z,22.35
2018-01-23T09:47:05.289Z,25.53
2018-01-23T09:49:39.938Z,23.90
2018-01-23T09:52:14.923Z,23.20
2018-01-23T09:54:49.727Z,21.67
2018-01-23T09:57:24.542Z,22.17
2018-01-23T09:59:59.858Z,23.63
2018-01-23T10:02:34.919Z,17.00
2018-01-23T10:05:10.744Z,20.70
2018-01-23T10:07:45.591Z,18.02
2018-01-23T10:10:20.649Z,22.13
2018-01-23T10:12:55.627Z,20.87
2018-01-23T10:15:30.953Z,20.17
2018-01-23T10:18:05.827Z,21.73
2018-01-23T10:20:40.614Z,20.33
2018-01-23T10:23:15.838Z,19.70
2018-01-23T10:25:50.660Z,22.10
2018-01-23T10:28:25.637Z,20.23
2018-01-23T10:31:00.870Z,20.63
2018-01-23T10:33:35.767Z,21.90
2018-01-23T10:36:10.909Z,21.87
2018-01-23T10:38:46.639Z,21.43
2018-01-23T10:41:21.583Z,20.10
2018-01-23T10:43:56.679Z,21.20
2018-01-23T10:46:31.695Z,21.47
2018-01-23T10:49:06.962Z,22.10
2018-01-23T10:51:41.642Z,22.53
2018-01-23T10:54:16.800Z,22.00
2018-01-23T10:56:51.669Z,25.37
2018-01-23T10:59:26.577Z,23.53
2018-01-23T11:02:01.372Z,23.63
2018-01-23T11:04:36.745Z,23.90
2018-01-23T11:07:11.618Z,26.37
2018-01-23T11:09:46.701Z,25.80
2018-01-23T11:12:21.689Z,26.87
2018-01-23T11:14:56.663Z,24.30
2018-01-23T11:17:33.040Z,24.67
2018-01-23T11:20:08.223Z,25.75
2018-01-23T11:22:43.718Z,20.02
2018-01-23T11:25:18.934Z,20.50
2018-01-23T11:27:53.742Z,25.13
2018-01-23T11:30:28.718Z,24.90
2018-01-23T11:33:04.026Z,25.50
2018-01-23T11:35:38.731Z,25.00
2018-01-23T11:38:14.026Z,22.42
2018-01-23T11:40:48.842Z,20.80
2018-01-23T11:43:23.752Z,21.90
2018-01-23T11:45:58.716Z,19.90
2018-01-23T11:48:33.768Z,14.17
2018-01-23T11:51:08.622Z,19.30
2018-01-23T11:53:43.758Z,17.37
2018-01-23T11:56:18.977Z,17.70
2018-01-23T11:58:53.917Z,16.57
2018-01-23T12:01:28.427Z,15.30
2018-01-23T12:04:03.778Z,14.20
2018-01-23T12:06:38.286Z,14.07
2018-01-23T12:09:13.284Z,13.83
2018-01-23T12:11:47.988Z,13.50
2018-01-23T12:14:23.264Z,13.60
2018-01-23T12:16:58.364Z,11.60
2018-01-23T12:19:33.230Z,13.10
2018-01-23T12:22:07.987Z,7.85
2018-01-23T12:24:43.045Z,9.73
2018-01-23T12:27:17.922Z,10.87
2018-01-23T12:29:52.882Z,10.27
2018-01-23T12:32:27.891Z,11.97
2018-01-23T12:35:04.196Z,11.07
2018-01-23T12:37:40.282Z,10.37
2018-01-23T12:40:17.498Z,10.00
2018-01-23T12:42:51.982Z,10.70
2018-01-23T12:45:37.834Z,11.33
2018-01-23T12:48:12.643Z,8.02
2018-01-23T12:50:47.871Z,8.83
2018-01-23T12:53:23.044Z,8.50
2018-01-23T12:55:58.091Z,10.37
2018-01-23T12:58:32.890Z,9.20
2018-01-23T13:01:07.987Z,8.15
2018-01-23T13:03:43.013Z,9.77
2018-01-23T13:06:18.260Z,12.73
2018-01-23T13:08:53.069Z,8.93
2018-01-23T13:11:28.242Z,10.67
2018-01-23T13:14:04.238Z,11.43
2018-01-23T13:16:41.383Z,10.27
2018-01-23T13:19:16.602Z,9.07
2018-01-23T13:21:51.078Z,9.50
2018-01-23T13:24:25.487Z,8.80
2018-01-23T13:27:00.338Z,9.43
2018-01-23T13:29:34.615Z,10.30
2018-01-23T13:32:10.403Z,9.65
2018-01-23T13:34:45.292Z,7.83
2018-01-23T13:37:20.702Z,9.40
2018-01-23T13:40:01.536Z,7.87
2018-01-23T13:42:36.482Z,7.87
2018-01-23T13:45:11.471Z,8.43
2018-01-23T13:47:46.569Z,9.73
2018-01-23T13:50:21.616Z,7.03
2018-01-23T13:52:56.491Z,8.23
2018-01-23T13:55:31.604Z,9.33
2018-01-23T13:58:06.545Z,9.30
2018-01-23T14:00:41.554Z,9.03
2018-01-23T14:03:16.245Z,9.40
2018-01-23T14:05:51.604Z,6.30
2018-01-23T14:08:26.384Z,5.90
2018-01-23T14:11:02.358Z,6.53
2018-01-23T14:13:37.356Z,8.10
2018-01-23T14:16:12.010Z,8.00
2018-01-23T14:18:47.038Z,6.70
2018-01-23T14:21:22.284Z,7.40
2018-01-23T14:23:57.194Z,7.43
2018-01-23T14:26:32.070Z,7.23
2018-01-23T14:29:07.038Z,7.17
2018-01-23T14:31:41.998Z,6.63
2018-01-23T14:34:17.036Z,6.03
2018-01-23T14:36:51.886Z,6.17
2018-01-23T14:39:27.468Z,5.90
2018-01-23T14:42:02.689Z,4.27
2018-01-23T14:44:37.517Z,4.60
2018-01-23T14:47:12.268Z,4.80
2018-01-23T14:49:48.128Z,4.80
2018-01-23T14:52:23.379Z,6.00
2018-01-23T14:54:58.222Z,5.00
2018-01-23T14:57:36.812Z,5.20
2018-01-23T15:00:15.750Z,5.03
2018-01-23T15:02:50.660Z,4.50
2018-01-23T15:05:25.207Z,4.60
2018-01-23T15:08:00.068Z,5.57
2018-01-23T15:10:34.865Z,4.90
2018-01-23T15:13:09.260Z,3.50
2018-01-23T15:15:44.121Z,4.60
2018-01-23T15:18:19.848Z,4.70
2018-01-23T15:20:55.108Z,5.10
2018-01-23T15:23:29.919Z,4.17
2018-01-23T15:26:04.711Z,4.77
2018-01-23T15:28:39.268Z,5.50
2018-01-23T15:31:13.834Z,4.37
2018-01-23T15:33:48.519Z,4.47
2018-01-23T15:36:23.561Z,4.75
2018-01-23T15:38:58.828Z,4.77
2018-01-23T15:41:33.722Z,3.60
2018-01-23T15:44:08.167Z,4.40
2018-01-23T15:46:43.142Z,4.33
2018-01-23T15:49:17.966Z,4.53
2018-01-23T15:51:52.815Z,3.77
2018-01-23T15:54:27.641Z,4.30
2018-01-23T15:57:02.618Z,4.57
2018-01-23T15:59:37.045Z,4.20
2018-01-23T16:02:11.575Z,2.60
2018-01-23T16:04:46.333Z,4.03
2018-01-23T16:07:21.134Z,3.47
2018-01-23T16:09:55.792Z,4.00
2018-01-23T16:12:30.465Z,3.13
2018-01-23T16:15:05.473Z,4.27
2018-01-23T16:17:40.044Z,3.63
2018-01-23T16:20:14.624Z,2.60
2018-01-23T16:22:49.529Z,4.50
2018-01-23T16:25:24.077Z,4.70
2018-01-23T16:30:48.155Z,4.37
2018-01-23T16:33:23.339Z,4.23
2018-01-23T16:35:58.191Z,4.07
2018-01-23T16:38:33.005Z,3.03
2018-01-23T16:41:07.725Z,3.50
2018-01-23T16:43:42.731Z,2.60
2018-01-23T16:46:21.648Z,3.80
2018-01-23T16:48:57.202Z,3.10
2018-01-23T16:51:31.778Z,3.37
2018-01-23T16:54:06.006Z,2.90
2018-01-23T16:56:40.939Z,3.50
2018-01-23T16:59:15.866Z,3.23
2018-01-23T17:01:50.794Z,2.83
2018-01-23T17:04:26.718Z,2.67
2018-01-23T17:07:01.267Z,4.20
2018-01-23T17:09:36.271Z,3.50
2018-01-23T17:12:11.709Z,3.90
2018-01-23T17:14:46.406Z,3.90
2018-01-23T17:17:20.993Z,3.53
2018-01-23T17:19:55.860Z,3.53
2018-01-23T17:22:30.684Z,4.07
2018-01-23T17:25:04.875Z,3.40
2018-01-23T17:27:39.986Z,3.80
2018-01-23T17:30:15.153Z,3.13
2018-01-23T17:32:51.473Z,3.63
2018-01-23T17:35:26.412Z,3.43
2018-01-23T17:38:01.643Z,4.30
2018-01-23T17:40:36.799Z,3.97
2018-01-23T17:43:12.083Z,3.70
2018-01-23T17:45:46.894Z,3.77
2018-01-23T17:48:21.672Z,4.63
2018-01-23T17:50:56.500Z,4.20
2018-01-23T17:53:31.368Z,5.27
2018-01-23T17:56:06.307Z,2.97
2018-01-23T17:58:40.895Z,4.70
2018-01-23T18:01:25.685Z,4.33
2018-01-23T18:04:01.310Z,5.70
2018-01-23T18:06:37.104Z,5.57
2018-01-23T18:09:24.208Z,4.43
2018-01-23T18:12:03.792Z,2.53
2018-01-23T18:17:34.532Z,4.90
2018-01-23T18:20:08.991Z,4.07
2018-01-23T18:22:43.921Z,3.47
2018-01-23T18:25:19.473Z,4.80
2018-01-23T18:27:59.729Z,3.40
2018-01-23T18:33:35.083Z,3.97
2018-01-23T18:36:10.381Z,5.07
2018-01-23T18:50:19.270Z,3.20
2018-01-23T18:52:54.194Z,3.77
2018-01-23T18:55:29.194Z,3.60
2018-01-23T18:58:05.503Z,4.05
2018-01-23T19:00:39.857Z,3.20
2018-01-23T19:03:14.268Z,3.20
2018-01-23T19:05:49.229Z,3.70
2018-01-23T19:08:24.526Z,3.70
2018-01-23T19:10:59.546Z,3.40
2018-01-23T19:13:34.671Z,3.37
2018-01-23T19:16:10.084Z,4.70
2018-01-23T19:18:45.092Z,4.23
2018-01-23T19:21:20.430Z,3.78
2018-01-23T19:23:55.190Z,4.03
2018-01-23T19:26:30.245Z,3.80
2018-01-23T19:29:05.588Z,3.47
2018-01-23T19:31:40.454Z,3.77
2018-01-23T19:34:15.707Z,3.97
2018-01-23T19:36:51.254Z,4.60
2018-01-23T19:39:26.169Z,4.43
2018-01-23T19:42:01.524Z,3.73
2018-01-23T19:44:36.597Z,4.70
2018-01-23T19:47:11.610Z,4.57
2018-01-23T19:49:46.790Z,3.97
2018-01-23T19:52:22.233Z,3.40
2018-01-23T19:54:57.413Z,4.60
2018-01-23T19:57:32.513Z,3.90
2018-01-23T20:00:07.176Z,4.22
2018-01-23T20:02:42.338Z,5.07
2018-01-23T20:05:16.842Z,5.17
2018-01-23T20:07:51.630Z,2.80
2018-01-23T20:10:26.705Z,4.60
2018-01-23T20:13:01.831Z,4.93
2018-01-23T20:15:36.711Z,5.30
2018-01-23T20:18:11.715Z,5.10
2018-01-23T20:20:46.848Z,5.13
2018-01-23T20:23:21.998Z,4.80
2018-01-23T20:25:57.431Z,6.20
2018-01-23T20:28:32.399Z,4.50
2018-01-23T20:31:07.698Z,5.70
2018-01-23T20:33:42.069Z,5.37
2018-01-23T20:36:17.352Z,5.53
2018-01-23T20:38:52.020Z,4.40
2018-01-23T20:41:27.290Z,4.57
2018-01-23T20:44:02.115Z,5.17
2018-01-23T20:46:36.975Z,5.63
2018-01-23T20:49:11.909Z,6.17
2018-01-23T20:51:46.644Z,6.10
2018-01-23T20:54:21.682Z,5.18
2018-01-23T20:56:56.576Z,6.17
2018-01-23T20:59:31.474Z,3.30
2018-01-23T21:02:07.600Z,6.27
2018-01-23T21:04:42.887Z,6.93
2018-01-23T21:07:19.190Z,7.93
2018-01-23T21:09:56.632Z,5.70
2018-01-23T21:12:31.042Z,7.80
2018-01-23T21:15:06.586Z,6.32
2018-01-23T21:17:41.858Z,7.73
2018-01-23T21:20:16.665Z,7.80
2018-01-23T21:22:51.719Z,8.90
2018-01-23T21:25:26.260Z,6.30
2018-01-23T21:28:00.985Z,6.00
2018-01-23T21:30:35.779Z,8.60
2018-01-23T21:33:10.170Z,7.45
2018-01-23T21:35:45.228Z,8.13
2018-01-23T21:38:20.490Z,7.78
2018-01-23T21:40:55.819Z,7.53
2018-01-23T21:43:30.242Z,9.80
2018-01-23T21:46:06.208Z,9.45
2018-01-23T21:48:41.341Z,7.93
2018-01-23T21:51:16.930Z,9.07
2018-01-23T21:53:51.916Z,8.20
2018-01-23T21:56:26.880Z,10.00
2018-01-23T21:59:02.195Z,5.60
2018-01-23T22:01:37.178Z,9.27
2018-01-23T22:04:12.130Z,9.80
2018-01-23T22:06:47.235Z,9.90
2018-01-23T22:09:22.854Z,9.40
2018-01-23T22:11:57.866Z,9.73
2018-01-23T22:14:33.137Z,9.60
2018-01-23T22:17:09.338Z,11.40
2018-01-23T22:19:44.494Z,8.20
2018-01-23T22:22:19.181Z,10.03
2018-01-23T22:24:54.352Z,12.37
2018-01-23T22:27:29.439Z,11.43
2018-01-23T22:30:05.324Z,12.90
2018-01-23T22:32:39.929Z,12.93
2018-01-23T22:35:14.308Z,12.82
2018-01-23T22:37:49.410Z,12.83
2018-01-23T22:40:24.752Z,12.63
2018-01-23T22:42:59.464Z,13.03
2018-01-23T22:45:34.126Z,13.40
2018-01-23T22:48:09.446Z,12.60
2018-01-23T22:50:43.847Z,14.20
2018-01-23T22:53:19.237Z,12.27
2018-01-23T22:55:54.065Z,15.13
2018-01-23T22:58:29.153Z,12.67
2018-01-23T23:01:04.276Z,11.00
2018-01-23T23:03:39.954Z,16.20
2018-01-23T23:06:14.977Z,15.35
2018-01-23T23:08:50.068Z,12.50
2018-01-23T23:11:25.174Z,12.63
2018-01-23T23:14:00.146Z,15.27
2018-01-23T23:16:35.253Z,11.87
2018-01-23T23:19:14.142Z,15.43
2018-01-23T23:21:48.962Z,9.68
2018-01-23T23:24:24.167Z,14.70
2018-01-23T23:26:59.339Z,12.27
2018-01-23T23:29:34.359Z,12.17
2018-01-23T23:32:09.656Z,12.00
2018-01-23T23:34:45.118Z,9.60
2018-01-23T23:37:20.222Z,11.65
2018-01-23T23:39:55.030Z,10.40
2018-01-23T23:42:30.099Z,10.50
2018-01-23T23:45:06.383Z,9.05
2018-01-23T23:47:41.411Z,10.40
2018-01-23T23:50:16.662Z,9.68
2018-01-23T23:52:52.078Z,10.43
2018-01-23T23:55:27.215Z,10.10
2018-01-23T23:58:02.294Z,12.30
